Home > Products > Valid Products > TAF

000
FTUS45 KBOU 220019 AAA
TAFDEN
TAF AMD
KDEN 220019Z 2200/2306 17012KT P6SM BKN100 BKN200
     FM220115 32012KT P6SM SCT080 BKN120
     FM220400 24007KT P6SM VCSH SCT080 BKN150
     FM220900 31009KT P6SM SCT080 SCT150
     FM221500 VRB06KT P6SM SCT080 BKN150
     FM221900 10007KT P6SM VCSH SCT060 BKN140=



000
FTUS45 KBOU 212340
TAFBJC
TAF
KBJC 212340Z 2200/2224 29008KT P6SM SCT070 BKN180
     FM220300 30007KT P6SM VCSH SCT070 BKN150
     FM221100 31006KT P6SM SCT080 SCT150
     FM221500 VRB06KT P6SM SCT080 BKN150
     FM221900 09007KT P6SM VCSH SCT060 BKN140=



000
FTUS45 KBOU 212340
TAFDEN
TAF
KDEN 212340Z 2200/2306 17012KT P6SM BKN100 BKN200
     FM220200 32006KT P6SM SCT080 BKN120
     FM220400 24007KT P6SM VCSH SCT080 BKN150
     FM220900 31009KT P6SM SCT080 SCT150
     FM221500 VRB06KT P6SM SCT080 BKN150
     FM221900 10007KT P6SM VCSH SCT060 BKN140=



000
FTUS45 KBOU 212340
TAFAPA
TAF
KAPA 212340Z 2200/2224 07006KT P6SM BKN100 BKN200
     FM220300 24007KT P6SM VCSH SCT080 BKN150
     FM220900 30009KT P6SM SCT080 SCT150
     FM221500 VRB06KT P6SM SCT080 BKN150
     FM221900 09007KT P6SM VCSH SCT060 BKN140=



000
FTUS45 KBOU 212259 AAB
TAFBJC
TAF AMD
KBJC 212259Z 2123/2218 28009KT P6SM SCT080 BKN150
     FM220300 30007KT P6SM VCSH SCT070 BKN150
     FM221100 31006KT P6SM SCT080 SCT150=



000
FTUS45 KBOU 212259 AAC
TAFAPA
TAF AMD
KAPA 212259Z 2123/2218 02007KT P6SM SCT080 BKN150
     FM220400 24008KT P6SM VCSH SCT080 BKN150
     FM221100 31008KT P6SM SCT080 SCT150
     FM221400 VRB05KT P6SM SCT080 SCT150=



000
FTUS45 KBOU 212259 AAB
TAFBJC
TAF AMD
KBJC 212259Z 2123/2218 28009KT P6SM SCT080 BKN150
     FM220300 30007KT P6SM VCSH SCT070 BKN150
     FM221100 31006KT P6SM SCT080 SCT150=



000
FTUS45 KBOU 212259 AAC
TAFAPA
TAF AMD
KAPA 212259Z 2123/2218 02007KT P6SM SCT080 BKN150
     FM220400 24008KT P6SM VCSH SCT080 BKN150
     FM221100 31008KT P6SM SCT080 SCT150
     FM221400 VRB05KT P6SM SCT080 SCT150=



000
FTUS45 KBOU 212256 AAC
TAFDEN
TAF AMD
KDEN 212256Z 2123/2224 19020KT P6SM VCSH BKN100 BKN180
     FM212330 35005KT P6SM SCT080 BKN120
     FM220400 23007KT P6SM VCSH SCT080 BKN150
     FM221000 33008KT P6SM SCT080 SCT150
     FM221500 13008KT P6SM SCT080 SCT150
     FM221900 11007KT P6SM VCSH SCT070 BKN150=



000
FTUS45 KBOU 212256 AAC
TAFDEN
TAF AMD
KDEN 212256Z 2123/2224 19020KT P6SM VCSH BKN100 BKN180
     FM212330 35005KT P6SM SCT080 BKN120
     FM220400 23007KT P6SM VCSH SCT080 BKN150
     FM221000 33008KT P6SM SCT080 SCT150
     FM221500 13008KT P6SM SCT080 SCT150
     FM221900 11007KT P6SM VCSH SCT070 BKN150=



000
FTUS45 KBOU 212114 AAA
TAFBJC
TAF AMD
KBJC 212114Z 2121/2218 05005KT P6SM SCT090 BKN180
     FM212200 28009KT P6SM SCT070 BKN120
      TEMPO 2123/2203 -SHRA SCT060 BKN080
     FM220300 30007KT P6SM VCSH SCT070 BKN150
     FM221100 31006KT P6SM SCT080 SCT150=



000
FTUS45 KBOU 212114 AAB
TAFAPA
TAF AMD
KAPA 212114Z 2121/2218 VRB05KT P6SM FEW090 SCT120 BKN220
     FM212200 30007KT P6SM SCT070 BKN120
      TEMPO 2200/2204 -SHRA SCT060 BKN080
     FM220400 24008KT P6SM VCSH SCT080 BKN150
     FM221100 31008KT P6SM SCT080 SCT150
     FM221400 VRB05KT P6SM SCT080 SCT150=



000
FTUS45 KBOU 212109 AAB
TAFDEN
TAF AMD
KDEN 212109Z 2121/2224 08005KT P6SM FEW090 SCT120 BKN250
     FM212230 29010KT P6SM SCT070 BKN120
      TEMPO 2200/2204 -SHRA SCT060 BKN080
     FM220400 23007KT P6SM VCSH SCT080 BKN150
     FM221000 33008KT P6SM SCT080 SCT150
     FM221500 13008KT P6SM SCT080 SCT150
     FM221900 11007KT P6SM VCSH SCT070 BKN150=



000
FTUS45 KBOU 211856 AAA
TAFAPA
TAF AMD
KAPA 211856Z 2119/2218 VRB05KT P6SM FEW140 SCT200
     FM212000 34006KT P6SM SCT080 BKN150
     FM212300 30010KT P6SM SCT070 BKN120
      TEMPO 2200/2204 -SHRA SCT060 BKN080
     FM220400 24008KT P6SM VCSH SCT080 BKN150
     FM221100 31008KT P6SM SCT080 SCT150
     FM221400 VRB05KT P6SM SCT080 SCT150=



000
FTUS45 KBOU 211852 AAA
TAFDEN
TAF AMD
KDEN 211852Z 2119/2224 VRB05KT P6SM FEW100 SCT120
     FM212100 03006KT P6SM SCT080 BKN120
     FM212300 27010KT P6SM SCT070 BKN120
      TEMPO 2200/2204 -SHRA SCT060 BKN080
     FM220400 23007KT P6SM VCSH SCT080 BKN150
     FM221000 33008KT P6SM SCT080 SCT150
     FM221500 13008KT P6SM SCT080 SCT150
     FM221900 11007KT P6SM VCSH SCT070 BKN150=



000
FTUS45 KBOU 211735
TAFBJC
TAF
KBJC 211735Z 2118/2218 VRB05KT P6SM FEW140 SCT200
     FM211900 08007KT P6SM SCT080 BKN140
     FM212200 28011KT P6SM SCT070 BKN120
      TEMPO 2123/2203 -SHRA SCT060 BKN080
     FM220300 30007KT P6SM VCSH SCT070 BKN150
     FM221100 31006KT P6SM SCT080 SCT150=



000
FTUS45 KBOU 211735
TAFAPA
TAF
KAPA 211735Z 2118/2218 20006KT P6SM FEW140 SCT200
     FM211900 15006KT P6SM SCT080 BKN150
     FM220000 29011KT P6SM SCT070 BKN120
      TEMPO 2200/2204 -SHRA SCT060 BKN080
     FM220400 24008KT P6SM VCSH SCT080 BKN150
     FM221100 31008KT P6SM SCT080 SCT150
     FM221400 VRB05KT P6SM SCT080 SCT150=



000
FTUS45 KBOU 211735
TAFDEN
TAF
KDEN 211735Z 2118/2224 22006KT P6SM FEW100 SCT120
     FM211900 16006KT P6SM SCT080 BKN120
     FM212300 27010KT P6SM SCT070 BKN120
      TEMPO 2200/2204 -SHRA SCT060 BKN080
     FM220400 23007KT P6SM VCSH SCT080 BKN150
     FM221000 33008KT P6SM SCT080 SCT150
     FM221500 13008KT P6SM SCT080 SCT150
     FM221900 11007KT P6SM VCSH SCT070 BKN150=



000
FTUS45 KBOU 211611 AAA
TAFAPA
TAF AMD
KAPA 211611Z 2116/2212 20010KT P6SM FEW140 SCT200
     FM211800 18006KT P6SM FEW140 SCT200
     FM211900 15006KT P6SM SCT080 BKN150
     FM220000 29011KT P6SM SCT070 BKN120
      TEMPO 2200/2204 -SHRA SCT060 BKN080
     FM220400 31011KT P6SM SCT080 BKN150
     FM220700 19009KT P6SM SCT080 BKN150=



000
FTUS45 KBOU 211611 AAA
TAFAPA
TAF AMD
KAPA 211611Z 2116/2212 20010KT P6SM FEW140 SCT200
     FM211800 18006KT P6SM FEW140 SCT200
     FM211900 15006KT P6SM SCT080 BKN150
     FM220000 29011KT P6SM SCT070 BKN120
      TEMPO 2200/2204 -SHRA SCT060 BKN080
     FM220400 31011KT P6SM SCT080 BKN150
     FM220700 19009KT P6SM SCT080 BKN150=



000
FTUS45 KBOU 211611 AAA
TAFAPA
TAF AMD
KAPA 211611Z 2116/2212 20010KT P6SM FEW140 SCT200
     FM211800 18006KT P6SM FEW140 SCT200
     FM211900 15006KT P6SM SCT080 BKN150
     FM220000 29011KT P6SM SCT070 BKN120
      TEMPO 2200/2204 -SHRA SCT060 BKN080
     FM220400 31011KT P6SM SCT080 BKN150
     FM220700 19009KT P6SM SCT080 BKN150=



000
FTUS45 KBOU 211608 AAB
TAFDEN
TAF AMD
KDEN 211608Z 2116/2218 21006KT P6SM FEW100 SCT120
     FM211900 16006KT P6SM SCT080 BKN120
     FM212300 27010KT P6SM SCT070 BKN120
      TEMPO 2200/2204 -SHRA SCT060 BKN080
     FM220400 33011KT P6SM SCT080 BKN150
     FM220700 23010KT P6SM SCT080 BKN150=



000
FTUS45 KBOU 211608 AAB
TAFDEN
TAF AMD
KDEN 211608Z 2116/2218 21006KT P6SM FEW100 SCT120
     FM211900 16006KT P6SM SCT080 BKN120
     FM212300 27010KT P6SM SCT070 BKN120
      TEMPO 2200/2204 -SHRA SCT060 BKN080
     FM220400 33011KT P6SM SCT080 BKN150
     FM220700 23010KT P6SM SCT080 BKN150=



000
FTUS45 KBOU 211608 AAB
TAFDEN
TAF AMD
KDEN 211608Z 2116/2218 21006KT P6SM FEW100 SCT120
     FM211900 16006KT P6SM SCT080 BKN120
     FM212300 27010KT P6SM SCT070 BKN120
      TEMPO 2200/2204 -SHRA SCT060 BKN080
     FM220400 33011KT P6SM SCT080 BKN150
     FM220700 23010KT P6SM SCT080 BKN150=



000
FTUS45 KBOU 211608 AAB
TAFDEN
TAF AMD
KDEN 211608Z 2116/2218 21006KT P6SM FEW100 SCT120
     FM211900 16006KT P6SM SCT080 BKN120
     FM212300 27010KT P6SM SCT070 BKN120
      TEMPO 2200/2204 -SHRA SCT060 BKN080
     FM220400 33011KT P6SM SCT080 BKN150
     FM220700 23010KT P6SM SCT080 BKN150=



000
FTUS45 KBOU 211456 AAA
TAFDEN
TAF AMD
KDEN 211456Z 2115/2218 23010KT P6SM FEW100 SCT120
     FM211600 18006KT P6SM FEW100 SCT120
     FM211900 16006KT P6SM SCT080 BKN120
     FM212300 27010KT P6SM SCT070 BKN120 PROB30 2200/2204 -SHRA
      SCT060 BKN080
     FM220400 33011KT P6SM SCT080 BKN150
     FM220700 23010KT P6SM SCT080 BKN150=



000
FTUS45 KBOU 211456 AAA
TAFDEN
TAF AMD
KDEN 211456Z 2115/2218 23010KT P6SM FEW100 SCT120
     FM211600 18006KT P6SM FEW100 SCT120
     FM211900 16006KT P6SM SCT080 BKN120
     FM212300 27010KT P6SM SCT070 BKN120 PROB30 2200/2204 -SHRA
      SCT060 BKN080
     FM220400 33011KT P6SM SCT080 BKN150
     FM220700 23010KT P6SM SCT080 BKN150=



000
FTUS45 KBOU 211122
TAFAPA
TAF
KAPA 211122Z 2112/2212 20011KT P6SM FEW140
     FM211500 VRB06KT P6SM FEW140 SCT200
     FM211900 15009KT P6SM SCT080 BKN150
     FM220000 29011KT P6SM SCT070 BKN120 PROB30 2200/2204 -SHRA
      SCT060 BKN080
     FM220400 31011KT P6SM SCT080 BKN150
     FM220700 19009KT P6SM SCT080 BKN150=



000
FTUS45 KBOU 211122
TAFBJC
TAF
KBJC 211122Z 2112/2212 VRB05KT P6SM FEW140 SCT200
     FM211900 08007KT P6SM SCT080 BKN140
     FM212200 28011KT P6SM SCT070 BKN120 PROB30 2123/2203 -SHRA
      SCT060 BKN080
     FM220300 30011KT P6SM SCT070 BKN150=



000
FTUS45 KBOU 211122
TAFDEN
TAF
KDEN 211122Z 2112/2218 24010KT P6SM FEW140
     FM211500 VRB06KT P6SM FEW140 SCT200
     FM211900 16006KT P6SM SCT080 BKN150
     FM212300 27010KT P6SM SCT070 BKN120 PROB30 2200/2204 -SHRA
      SCT060 BKN080
     FM220400 33011KT P6SM SCT080 BKN150
     FM220700 23010KT P6SM SCT080 BKN150=



000
FTUS45 KBOU 211122
TAFAPA
TAF
KAPA 211122Z 2112/2212 20011KT P6SM FEW140
     FM211500 VRB06KT P6SM FEW140 SCT200
     FM211900 15009KT P6SM SCT080 BKN150
     FM220000 29011KT P6SM SCT070 BKN120 PROB30 2200/2204 -SHRA
      SCT060 BKN080
     FM220400 31011KT P6SM SCT080 BKN150
     FM220700 19009KT P6SM SCT080 BKN150=



000
FTUS45 KBOU 211122
TAFBJC
TAF
KBJC 211122Z 2112/2212 VRB05KT P6SM FEW140 SCT200
     FM211900 08007KT P6SM SCT080 BKN140
     FM212200 28011KT P6SM SCT070 BKN120 PROB30 2123/2203 -SHRA
      SCT060 BKN080
     FM220300 30011KT P6SM SCT070 BKN150=



000
FTUS45 KBOU 211122
TAFAPA
TAF
KAPA 211122Z 2112/2212 20011KT P6SM FEW140
     FM211500 VRB06KT P6SM FEW140 SCT200
     FM211900 15009KT P6SM SCT080 BKN150
     FM220000 29011KT P6SM SCT070 BKN120 PROB30 2200/2204 -SHRA
      SCT060 BKN080
     FM220400 31011KT P6SM SCT080 BKN150
     FM220700 19009KT P6SM SCT080 BKN150=



000
FTUS45 KBOU 211122
TAFDEN
TAF
KDEN 211122Z 2112/2218 24010KT P6SM FEW140
     FM211500 VRB06KT P6SM FEW140 SCT200
     FM211900 16006KT P6SM SCT080 BKN150
     FM212300 27010KT P6SM SCT070 BKN120 PROB30 2200/2204 -SHRA
      SCT060 BKN080
     FM220400 33011KT P6SM SCT080 BKN150
     FM220700 23010KT P6SM SCT080 BKN150=



000
FTUS45 KBOU 211122
TAFBJC
TAF
KBJC 211122Z 2112/2212 VRB05KT P6SM FEW140 SCT200
     FM211900 08007KT P6SM SCT080 BKN140
     FM212200 28011KT P6SM SCT070 BKN120 PROB30 2123/2203 -SHRA
      SCT060 BKN080
     FM220300 30011KT P6SM SCT070 BKN150=



000
FTUS45 KBOU 211122
TAFDEN
TAF
KDEN 211122Z 2112/2218 24010KT P6SM FEW140
     FM211500 VRB06KT P6SM FEW140 SCT200
     FM211900 16006KT P6SM SCT080 BKN150
     FM212300 27010KT P6SM SCT070 BKN120 PROB30 2200/2204 -SHRA
      SCT060 BKN080
     FM220400 33011KT P6SM SCT080 BKN150
     FM220700 23010KT P6SM SCT080 BKN150=



000
FTUS45 KBOU 211122
TAFBJC
TAF
KBJC 211122Z 2112/2212 VRB05KT P6SM FEW140 SCT200
     FM211900 08007KT P6SM SCT080 BKN140
     FM212200 28011KT P6SM SCT070 BKN120 PROB30 2123/2203 -SHRA
      SCT060 BKN080
     FM220300 30011KT P6SM SCT070 BKN150=



000
FTUS45 KBOU 211122
TAFAPA
TAF
KAPA 211122Z 2112/2212 20011KT P6SM FEW140
     FM211500 VRB06KT P6SM FEW140 SCT200
     FM211900 15009KT P6SM SCT080 BKN150
     FM220000 29011KT P6SM SCT070 BKN120 PROB30 2200/2204 -SHRA
      SCT060 BKN080
     FM220400 31011KT P6SM SCT080 BKN150
     FM220700 19009KT P6SM SCT080 BKN150=



000
FTUS45 KBOU 211039 AAC
TAFDEN
TAF AMD
KDEN 211039Z 2111/2212 22010KT P6SM FEW120
     FM211500 VRB06KT P6SM FEW140 SCT200
     FM211900 14009KT P6SM SCT080 BKN150
     FM212300 16010KT P6SM SCT070 BKN120 PROB30 2123/2203 -SHRA
      SCT060 BKN080
     FM220300 33011KT P6SM SCT080 BKN150=



000
FTUS45 KBOU 211039 AAC
TAFDEN
TAF AMD
KDEN 211039Z 2111/2212 22010KT P6SM FEW120
     FM211500 VRB06KT P6SM FEW140 SCT200
     FM211900 14009KT P6SM SCT080 BKN150
     FM212300 16010KT P6SM SCT070 BKN120 PROB30 2123/2203 -SHRA
      SCT060 BKN080
     FM220300 33011KT P6SM SCT080 BKN150=



000
FTUS45 KBOU 211039 AAC
TAFDEN
TAF AMD
KDEN 211039Z 2111/2212 22010KT P6SM FEW120
     FM211500 VRB06KT P6SM FEW140 SCT200
     FM211900 14009KT P6SM SCT080 BKN150
     FM212300 16010KT P6SM SCT070 BKN120 PROB30 2123/2203 -SHRA
      SCT060 BKN080
     FM220300 33011KT P6SM SCT080 BKN150=



000
FTUS45 KBOU 211039 AAC
TAFDEN
TAF AMD
KDEN 211039Z 2111/2212 22010KT P6SM FEW120
     FM211500 VRB06KT P6SM FEW140 SCT200
     FM211900 14009KT P6SM SCT080 BKN150
     FM212300 16010KT P6SM SCT070 BKN120 PROB30 2123/2203 -SHRA
      SCT060 BKN080
     FM220300 33011KT P6SM SCT080 BKN150=



000
FTUS45 KBOU 210901 AAB
TAFDEN
TAF AMD
KDEN 210901Z 2109/2212 19016KT P6SM SKC
     FM211300 22010KT P6SM FEW120
     FM211500 VRB06KT P6SM FEW140 SCT200
     FM211900 14009KT P6SM SCT080 BKN150
     FM212300 16010KT P6SM SCT070 BKN120 PROB30 2123/2203 -SHRA
      SCT060 BKN080
     FM220300 33011KT P6SM SCT080 BKN150=



000
FTUS45 KBOU 210725 AAA
TAFDEN
TAF AMD
KDEN 210725Z 2107/2212 19018KT P6SM SKC
     FM210900 20014KT P6SM SKC
     FM211500 VRB06KT P6SM FEW140 SCT200
     FM211900 14009KT P6SM SCT080 BKN150
     FM212300 16010KT P6SM SCT070 BKN120 PROB30 2123/2203 -SHRA
      SCT060 BKN080
     FM220300 33011KT P6SM SCT080 BKN150=



000
FTUS45 KBOU 210725 AAA
TAFDEN
TAF AMD
KDEN 210725Z 2107/2212 19018KT P6SM SKC
     FM210900 20014KT P6SM SKC
     FM211500 VRB06KT P6SM FEW140 SCT200
     FM211900 14009KT P6SM SCT080 BKN150
     FM212300 16010KT P6SM SCT070 BKN120 PROB30 2123/2203 -SHRA
      SCT060 BKN080
     FM220300 33011KT P6SM SCT080 BKN150=



000
FTUS45 KBOU 210525
TAFAPA
TAF
KAPA 210525Z 2106/2206 20011KT P6SM FEW120
     FM210800 22010KT P6SM SKC
     FM211500 VRB06KT P6SM FEW140 SCT200
     FM211900 15009KT P6SM SCT080 BKN150
     FM212300 15006KT P6SM SCT070 BKN120 PROB30 2123/2203 -SHRA
      SCT060 BKN080
     FM220300 31011KT P6SM SCT080 BKN150=



000
FTUS45 KBOU 210525
TAFBJC
TAF
KBJC 210525Z 2106/2206 VRB05KT P6SM SKC
     FM210800 30006KT P6SM SKC
     FM211500 VRB06KT P6SM FEW140 SCT200
     FM211900 08007KT P6SM SCT080 BKN140
     FM212300 14007KT P6SM SCT070 BKN120 PROB30 2123/2202 -SHRA
      SCT060 BKN080
     FM220200 30011KT P6SM SCT070 BKN150=



000
FTUS45 KBOU 210525
TAFDEN
TAF
KDEN 210525Z 2106/2212 19018G28KT P6SM FEW120
     FM210800 22014KT P6SM SKC
     FM211500 VRB06KT P6SM FEW140 SCT200
     FM211900 14009KT P6SM SCT080 BKN150
     FM212300 16010KT P6SM SCT070 BKN120 PROB30 2123/2203 -SHRA
      SCT060 BKN080
     FM220300 33011KT P6SM SCT080 BKN150=



000
FTUS45 KBOU 210525
TAFBJC
TAF
KBJC 210525Z 2106/2206 VRB05KT P6SM SKC
     FM210800 30006KT P6SM SKC
     FM211500 VRB06KT P6SM FEW140 SCT200
     FM211900 08007KT P6SM SCT080 BKN140
     FM212300 14007KT P6SM SCT070 BKN120 PROB30 2123/2202 -SHRA
      SCT060 BKN080
     FM220200 30011KT P6SM SCT070 BKN150=



000
FTUS45 KBOU 210525
TAFAPA
TAF
KAPA 210525Z 2106/2206 20011KT P6SM FEW120
     FM210800 22010KT P6SM SKC
     FM211500 VRB06KT P6SM FEW140 SCT200
     FM211900 15009KT P6SM SCT080 BKN150
     FM212300 15006KT P6SM SCT070 BKN120 PROB30 2123/2203 -SHRA
      SCT060 BKN080
     FM220300 31011KT P6SM SCT080 BKN150=



000
FTUS45 KBOU 210525
TAFDEN
TAF
KDEN 210525Z 2106/2212 19018G28KT P6SM FEW120
     FM210800 22014KT P6SM SKC
     FM211500 VRB06KT P6SM FEW140 SCT200
     FM211900 14009KT P6SM SCT080 BKN150
     FM212300 16010KT P6SM SCT070 BKN120 PROB30 2123/2203 -SHRA
      SCT060 BKN080
     FM220300 33011KT P6SM SCT080 BKN150=



000
FTUS45 KBOU 210259 AAA
TAFAPA
TAF AMD
KAPA 210259Z 2103/2124 18013KT P6SM FEW120
     FM210600 23010KT P6SM SKC
     FM211500 VRB06KT P6SM FEW120 SCT200
     FM211900 14008KT P6SM SCT080 BKN140
     FM212200 17010KT P6SM SCT070 BKN120=



000
FTUS45 KBOU 210259 AAA
TAFAPA
TAF AMD
KAPA 210259Z 2103/2124 18013KT P6SM FEW120
     FM210600 23010KT P6SM SKC
     FM211500 VRB06KT P6SM FEW120 SCT200
     FM211900 14008KT P6SM SCT080 BKN140
     FM212200 17010KT P6SM SCT070 BKN120=



000
FTUS45 KBOU 210259 AAA
TAFDEN
TAF AMD
KDEN 210259Z 2103/2206 18016KT P6SM FEW120
     FM210430 19013KT P6SM SKC
     FM210600 22011KT P6SM SKC
     FM211500 VRB06KT P6SM FEW120 SCT200
     FM211900 14009KT P6SM SCT080 BKN140
     FM212200 16010KT P6SM SCT070 BKN120=



000
FTUS45 KBOU 210259 AAA
TAFBJC
TAF AMD
KBJC 210259Z 2103/2124 24005KT P6SM FEW100
     FM210600 30006KT P6SM SKC
     FM211500 VRB06KT P6SM FEW120 SCT200
     FM211900 10007KT P6SM SCT080 BKN140
     FM212200 14007KT P6SM SCT070 BKN120=



000
FTUS45 KBOU 210259 AAA
TAFDEN
TAF AMD
KDEN 210259Z 2103/2206 18016KT P6SM FEW120
     FM210430 19013KT P6SM SKC
     FM210600 22011KT P6SM SKC
     FM211500 VRB06KT P6SM FEW120 SCT200
     FM211900 14009KT P6SM SCT080 BKN140
     FM212200 16010KT P6SM SCT070 BKN120=



000
FTUS45 KBOU 210259 AAA
TAFDEN
TAF AMD
KDEN 210259Z 2103/2206 18016KT P6SM FEW120
     FM210430 19013KT P6SM SKC
     FM210600 22011KT P6SM SKC
     FM211500 VRB06KT P6SM FEW120 SCT200
     FM211900 14009KT P6SM SCT080 BKN140
     FM212200 16010KT P6SM SCT070 BKN120=



000
FTUS45 KBOU 210259 AAA
TAFAPA
TAF AMD
KAPA 210259Z 2103/2124 18013KT P6SM FEW120
     FM210600 23010KT P6SM SKC
     FM211500 VRB06KT P6SM FEW120 SCT200
     FM211900 14008KT P6SM SCT080 BKN140
     FM212200 17010KT P6SM SCT070 BKN120=



000
FTUS45 KBOU 210259 AAA
TAFAPA
TAF AMD
KAPA 210259Z 2103/2124 18013KT P6SM FEW120
     FM210600 23010KT P6SM SKC
     FM211500 VRB06KT P6SM FEW120 SCT200
     FM211900 14008KT P6SM SCT080 BKN140
     FM212200 17010KT P6SM SCT070 BKN120=



000
FTUS45 KBOU 210259 AAA
TAFBJC
TAF AMD
KBJC 210259Z 2103/2124 24005KT P6SM FEW100
     FM210600 30006KT P6SM SKC
     FM211500 VRB06KT P6SM FEW120 SCT200
     FM211900 10007KT P6SM SCT080 BKN140
     FM212200 14007KT P6SM SCT070 BKN120=



000
FTUS45 KBOU 210259 AAA
TAFDEN
TAF AMD
KDEN 210259Z 2103/2206 18016KT P6SM FEW120
     FM210430 19013KT P6SM SKC
     FM210600 22011KT P6SM SKC
     FM211500 VRB06KT P6SM FEW120 SCT200
     FM211900 14009KT P6SM SCT080 BKN140
     FM212200 16010KT P6SM SCT070 BKN120=



000
FTUS45 KBOU 202336
TAFDEN
TAF
KDEN 202336Z 2100/2206 16014G25KT P6SM FEW100 SCT200
     FM210300 19013KT P6SM FEW200
     FM210600 22011KT P6SM SCT200
     FM211500 VRB06KT P6SM FEW120 SCT200
     FM211900 14009KT P6SM SCT080 BKN140
     FM212200 16010KT P6SM SCT070 BKN120=



000
FTUS45 KBOU 202336
TAFBJC
TAF
KBJC 202336Z 2100/2124 14012KT P6SM SCT080 SCT200
     FM210300 24007KT P6SM FEW100 SCT200
     FM210600 30006KT P6SM SCT200
     FM211500 VRB06KT P6SM FEW120 SCT200
     FM211900 10007KT P6SM SCT080 BKN140
     FM212200 14007KT P6SM SCT070 BKN120=



000
FTUS45 KBOU 202336
TAFAPA
TAF
KAPA 202336Z 2100/2124 17015G28KT P6SM FEW100 SCT200
     FM210300 18012KT P6SM FEW200
     FM210600 23010KT P6SM SCT200
     FM211500 VRB06KT P6SM FEW120 SCT200
     FM211900 14008KT P6SM SCT080 BKN140
     FM212200 17010KT P6SM SCT070 BKN120=



000
FTUS45 KBOU 202336
TAFAPA
TAF
KAPA 202336Z 2100/2124 17015G28KT P6SM FEW100 SCT200
     FM210300 18012KT P6SM FEW200
     FM210600 23010KT P6SM SCT200
     FM211500 VRB06KT P6SM FEW120 SCT200
     FM211900 14008KT P6SM SCT080 BKN140
     FM212200 17010KT P6SM SCT070 BKN120=



000
FTUS45 KBOU 202336
TAFBJC
TAF
KBJC 202336Z 2100/2124 14012KT P6SM SCT080 SCT200
     FM210300 24007KT P6SM FEW100 SCT200
     FM210600 30006KT P6SM SCT200
     FM211500 VRB06KT P6SM FEW120 SCT200
     FM211900 10007KT P6SM SCT080 BKN140
     FM212200 14007KT P6SM SCT070 BKN120=



000
FTUS45 KBOU 202336
TAFDEN
TAF
KDEN 202336Z 2100/2206 16014G25KT P6SM FEW100 SCT200
     FM210300 19013KT P6SM FEW200
     FM210600 22011KT P6SM SCT200
     FM211500 VRB06KT P6SM FEW120 SCT200
     FM211900 14009KT P6SM SCT080 BKN140
     FM212200 16010KT P6SM SCT070 BKN120=



000
FTUS45 KBOU 202101 AAA
TAFDEN
TAF AMD
KDEN 202101Z 2021/2124 16012G20KT P6SM FEW120 SCT220
     FM210300 18012KT P6SM SCT220
     FM210600 20010KT P6SM FEW200
     FM211400 22008KT P6SM FEW100 BKN140
     FM211900 17007KT P6SM SCT080 BKN120=



000
FTUS45 KBOU 202101 AAA
TAFDEN
TAF AMD
KDEN 202101Z 2021/2124 16012G20KT P6SM FEW120 SCT220
     FM210300 18012KT P6SM SCT220
     FM210600 20010KT P6SM FEW200
     FM211400 22008KT P6SM FEW100 BKN140
     FM211900 17007KT P6SM SCT080 BKN120=



000
FTUS45 KBOU 201727
TAFAPA
TAF
KAPA 201727Z 2018/2118 19008KT P6SM FEW120
     FM201900 17012G22KT P6SM FEW120 SCT220
     FM210300 18012KT P6SM SCT220
     FM210600 20010KT P6SM FEW200
     FM211000 21006KT P6SM FEW100 BKN140=



000
FTUS45 KBOU 201727
TAFDEN
TAF
KDEN 201727Z 2018/2124 18011KT P6SM FEW120
     FM202000 16014G21KT P6SM FEW120 SCT220
     FM210300 18012KT P6SM SCT220
     FM210600 20010KT P6SM FEW200
     FM211400 22008KT P6SM FEW100 BKN140
     FM211900 17007KT P6SM SCT080 BKN120=



000
FTUS45 KBOU 201727
TAFAPA
TAF
KAPA 201727Z 2018/2118 19008KT P6SM FEW120
     FM201900 17012G22KT P6SM FEW120 SCT220
     FM210300 18012KT P6SM SCT220
     FM210600 20010KT P6SM FEW200
     FM211000 21006KT P6SM FEW100 BKN140=



000
FTUS45 KBOU 201727
TAFDEN
TAF
KDEN 201727Z 2018/2124 18011KT P6SM FEW120
     FM202000 16014G21KT P6SM FEW120 SCT220
     FM210300 18012KT P6SM SCT220
     FM210600 20010KT P6SM FEW200
     FM211400 22008KT P6SM FEW100 BKN140
     FM211900 17007KT P6SM SCT080 BKN120=



000
FTUS45 KBOU 201727
TAFBJC
TAF
KBJC 201727Z 2018/2118 14003KT P6SM FEW120
     FM201900 10008KT P6SM FEW120 SCT220
     FM210200 24005KT P6SM FEW200
     FM210500 28008KT P6SM FEW140 SCT200
     FM211300 VRB03KT P6SM FEW100 BKN140=



000
FTUS45 KBOU 201727
TAFBJC
TAF
KBJC 201727Z 2018/2118 14003KT P6SM FEW120
     FM201900 10008KT P6SM FEW120 SCT220
     FM210200 24005KT P6SM FEW200
     FM210500 28008KT P6SM FEW140 SCT200
     FM211300 VRB03KT P6SM FEW100 BKN140=



000
FTUS45 KBOU 201456 AAA
TAFDEN
TAF AMD
KDEN 201456Z 2015/2118 21006KT P6SM SKC
     FM201700 19008KT P6SM FEW220
     FM202000 16014KT P6SM FEW120 SCT220
     FM210300 18012KT P6SM SCT220
     FM210600 20010KT P6SM FEW140 SCT200
     FM211400 22008KT P6SM SCT090 BKN140=



000
FTUS45 KBOU 201456 AAA
TAFDEN
TAF AMD
KDEN 201456Z 2015/2118 21006KT P6SM SKC
     FM201700 19008KT P6SM FEW220
     FM202000 16014KT P6SM FEW120 SCT220
     FM210300 18012KT P6SM SCT220
     FM210600 20010KT P6SM FEW140 SCT200
     FM211400 22008KT P6SM SCT090 BKN140=



000
FTUS45 KBOU 201120
TAFBJC
TAF
KBJC 201120Z 2012/2112 VRB03KT P6SM FEW200
     FM201500 33006KT P6SM FEW220
     FM201800 10008KT P6SM FEW120 SCT220
     FM210300 VRB05KT P6SM SCT220
     FM210600 24008KT P6SM FEW140 SCT200=



000
FTUS45 KBOU 201120
TAFAPA
TAF
KAPA 201120Z 2012/2112 19005KT P6SM FEW200
     FM201500 17008KT P6SM FEW220
     FM201800 15012KT P6SM FEW120 SCT220
     FM210300 17012KT P6SM SCT220
     FM210600 20010KT P6SM FEW140 SCT200=



000
FTUS45 KBOU 201120
TAFDEN
TAF
KDEN 201120Z 2012/2118 23009KT P6SM FEW200
     FM201500 19006KT P6SM FEW220
     FM201800 14014KT P6SM FEW120 SCT220
     FM210300 18012KT P6SM SCT220
     FM210600 20010KT P6SM FEW140 SCT200
     FM211400 22008KT P6SM SCT090 BKN140=



000
FTUS45 KBOU 201120
TAFAPA
TAF
KAPA 201120Z 2012/2112 19005KT P6SM FEW200
     FM201500 17008KT P6SM FEW220
     FM201800 15012KT P6SM FEW120 SCT220
     FM210300 17012KT P6SM SCT220
     FM210600 20010KT P6SM FEW140 SCT200=



000
FTUS45 KBOU 201120
TAFBJC
TAF
KBJC 201120Z 2012/2112 VRB03KT P6SM FEW200
     FM201500 33006KT P6SM FEW220
     FM201800 10008KT P6SM FEW120 SCT220
     FM210300 VRB05KT P6SM SCT220
     FM210600 24008KT P6SM FEW140 SCT200=



000
FTUS45 KBOU 201120
TAFDEN
TAF
KDEN 201120Z 2012/2118 23009KT P6SM FEW200
     FM201500 19006KT P6SM FEW220
     FM201800 14014KT P6SM FEW120 SCT220
     FM210300 18012KT P6SM SCT220
     FM210600 20010KT P6SM FEW140 SCT200
     FM211400 22008KT P6SM SCT090 BKN140=



000
FTUS45 KBOU 201039 AAB
TAFDEN
TAF AMD
KDEN 201039Z 2011/2112 24009KT P6SM FEW200
     FM201500 VRB06KT P6SM FEW220
     FM201800 17010KT P6SM FEW120 SCT220
     FM210300 20010KT P6SM SCT220=



000
FTUS45 KBOU 201039 AAB
TAFDEN
TAF AMD
KDEN 201039Z 2011/2112 24009KT P6SM FEW200
     FM201500 VRB06KT P6SM FEW220
     FM201800 17010KT P6SM FEW120 SCT220
     FM210300 20010KT P6SM SCT220=



000
FTUS45 KBOU 200903 AAA
TAFDEN
TAF AMD
KDEN 200903Z 2009/2112 21009KT P6SM SCT200
     FM201500 VRB06KT P6SM FEW220
     FM201800 17010KT P6SM FEW120 SCT220
     FM210300 20010KT P6SM SCT220=



000
FTUS45 KBOU 200525
TAFDEN
TAF
KDEN 200525Z 2006/2112 21008KT P6SM FEW220
     FM201500 VRB06KT P6SM FEW220
     FM201800 17010KT P6SM FEW120 SCT220
     FM210300 20010KT P6SM SCT220=



000
FTUS45 KBOU 200525
TAFAPA
TAF
KAPA 200525Z 2006/2106 17007KT P6SM FEW220
     FM200700 21008KT P6SM FEW220
     FM201500 VRB06KT P6SM FEW220
     FM201800 18010KT P6SM FEW120 SCT220=



000
FTUS45 KBOU 200525
TAFDEN
TAF
KDEN 200525Z 2006/2112 21008KT P6SM FEW220
     FM201500 VRB06KT P6SM FEW220
     FM201800 17010KT P6SM FEW120 SCT220
     FM210300 20010KT P6SM SCT220=



000
FTUS45 KBOU 200525
TAFBJC
TAF
KBJC 200525Z 2006/2106 28005KT P6SM FEW220
     FM201500 VRB05KT P6SM FEW220
     FM201900 11006KT P6SM FEW120 SCT220
     FM202300 15008KT P6SM FEW120 SCT220=



000
FTUS45 KBOU 200525
TAFAPA
TAF
KAPA 200525Z 2006/2106 17007KT P6SM FEW220
     FM200700 21008KT P6SM FEW220
     FM201500 VRB06KT P6SM FEW220
     FM201800 18010KT P6SM FEW120 SCT220=



000
FTUS45 KBOU 200525
TAFDEN
TAF
KDEN 200525Z 2006/2112 21008KT P6SM FEW220
     FM201500 VRB06KT P6SM FEW220
     FM201800 17010KT P6SM FEW120 SCT220
     FM210300 20010KT P6SM SCT220=



000
FTUS45 KBOU 200525
TAFBJC
TAF
KBJC 200525Z 2006/2106 28005KT P6SM FEW220
     FM201500 VRB05KT P6SM FEW220
     FM201900 11006KT P6SM FEW120 SCT220
     FM202300 15008KT P6SM FEW120 SCT220=



000
FTUS45 KBOU 200525
TAFBJC
TAF
KBJC 200525Z 2006/2106 28005KT P6SM FEW220
     FM201500 VRB05KT P6SM FEW220
     FM201900 11006KT P6SM FEW120 SCT220
     FM202300 15008KT P6SM FEW120 SCT220=



000
FTUS45 KBOU 200525
TAFAPA
TAF
KAPA 200525Z 2006/2106 17007KT P6SM FEW220
     FM200700 21008KT P6SM FEW220
     FM201500 VRB06KT P6SM FEW220
     FM201800 18010KT P6SM FEW120 SCT220=



000
FTUS45 KBOU 200255 AAB
TAFDEN
TAF AMD
KDEN 200255Z 2003/2106 14007KT P6SM SKC
     FM200330 19007KT P6SM FEW220
     FM200600 22008KT P6SM FEW220
     FM201600 VRB06KT P6SM FEW220
     FM202200 14008KT P6SM FEW120 SCT220
     FM210200 20007KT P6SM SCT220=



000
FTUS45 KBOU 200255 AAB
TAFDEN
TAF AMD
KDEN 200255Z 2003/2106 14007KT P6SM SKC
     FM200330 19007KT P6SM FEW220
     FM200600 22008KT P6SM FEW220
     FM201600 VRB06KT P6SM FEW220
     FM202200 14008KT P6SM FEW120 SCT220
     FM210200 20007KT P6SM SCT220=



000
FTUS45 KBOU 200129 AAA
TAFDEN
TAF AMD
KDEN 200129Z 2001/2106 12008KT P6SM FEW120 SCT220
     FM200300 17007KT P6SM FEW220
     FM200600 22008KT P6SM FEW220
     FM201600 VRB06KT P6SM FEW220
     FM202200 14008KT P6SM FEW120 SCT220
     FM210200 20007KT P6SM SCT220=



000
FTUS45 KBOU 200129 AAA
TAFDEN
TAF AMD
KDEN 200129Z 2001/2106 12008KT P6SM FEW120 SCT220
     FM200300 17007KT P6SM FEW220
     FM200600 22008KT P6SM FEW220
     FM201600 VRB06KT P6SM FEW220
     FM202200 14008KT P6SM FEW120 SCT220
     FM210200 20007KT P6SM SCT220=



000
FTUS45 KBOU 192334
TAFBJC
TAF
KBJC 192334Z 2000/2024 VRB05KT P6SM FEW120 SCT220
     FM200600 30005KT P6SM FEW220
     FM201500 VRB06KT P6SM FEW220
     FM202200 11006KT P6SM FEW120 SCT220=



000
FTUS45 KBOU 192334
TAFAPA
TAF
KAPA 192334Z 2000/2024 VRB05KT P6SM FEW120 SCT220
     FM200200 17007KT P6SM FEW220
     FM200600 22008KT P6SM FEW220
     FM201600 VRB06KT P6SM FEW220
     FM202200 13008KT P6SM FEW120 SCT220=



000
FTUS45 KBOU 192334
TAFDEN
TAF
KDEN 192334Z 2000/2106 07008KT P6SM FEW120 SCT220
     FM200200 19007KT P6SM FEW220
     FM200600 22008KT P6SM FEW220
     FM201600 VRB06KT P6SM FEW220
     FM202200 14008KT P6SM FEW120 SCT220
     FM210200 20007KT P6SM SCT220=



000
FTUS45 KBOU 192334
TAFBJC
TAF
KBJC 192334Z 2000/2024 VRB05KT P6SM FEW120 SCT220
     FM200600 30005KT P6SM FEW220
     FM201500 VRB06KT P6SM FEW220
     FM202200 11006KT P6SM FEW120 SCT220=



000
FTUS45 KBOU 192334
TAFAPA
TAF
KAPA 192334Z 2000/2024 VRB05KT P6SM FEW120 SCT220
     FM200200 17007KT P6SM FEW220
     FM200600 22008KT P6SM FEW220
     FM201600 VRB06KT P6SM FEW220
     FM202200 13008KT P6SM FEW120 SCT220=



000
FTUS45 KBOU 192334
TAFDEN
TAF
KDEN 192334Z 2000/2106 07008KT P6SM FEW120 SCT220
     FM200200 19007KT P6SM FEW220
     FM200600 22008KT P6SM FEW220
     FM201600 VRB06KT P6SM FEW220
     FM202200 14008KT P6SM FEW120 SCT220
     FM210200 20007KT P6SM SCT220=



000
FTUS45 KBOU 192334
TAFDEN
TAF
KDEN 192334Z 2000/2106 07008KT P6SM FEW120 SCT220
     FM200200 19007KT P6SM FEW220
     FM200600 22008KT P6SM FEW220
     FM201600 VRB06KT P6SM FEW220
     FM202200 14008KT P6SM FEW120 SCT220
     FM210200 20007KT P6SM SCT220=



000
FTUS45 KBOU 192334
TAFBJC
TAF
KBJC 192334Z 2000/2024 VRB05KT P6SM FEW120 SCT220
     FM200600 30005KT P6SM FEW220
     FM201500 VRB06KT P6SM FEW220
     FM202200 11006KT P6SM FEW120 SCT220=



000
FTUS45 KBOU 192334
TAFAPA
TAF
KAPA 192334Z 2000/2024 VRB05KT P6SM FEW120 SCT220
     FM200200 17007KT P6SM FEW220
     FM200600 22008KT P6SM FEW220
     FM201600 VRB06KT P6SM FEW220
     FM202200 13008KT P6SM FEW120 SCT220=



000
FTUS45 KBOU 192334
TAFBJC
TAF
KBJC 192334Z 2000/2024 VRB05KT P6SM FEW120 SCT220
     FM200600 30005KT P6SM FEW220
     FM201500 VRB06KT P6SM FEW220
     FM202200 11006KT P6SM FEW120 SCT220=



000
FTUS45 KBOU 192334
TAFDEN
TAF
KDEN 192334Z 2000/2106 07008KT P6SM FEW120 SCT220
     FM200200 19007KT P6SM FEW220
     FM200600 22008KT P6SM FEW220
     FM201600 VRB06KT P6SM FEW220
     FM202200 14008KT P6SM FEW120 SCT220
     FM210200 20007KT P6SM SCT220=



000
FTUS45 KBOU 192334
TAFAPA
TAF
KAPA 192334Z 2000/2024 VRB05KT P6SM FEW120 SCT220
     FM200200 17007KT P6SM FEW220
     FM200600 22008KT P6SM FEW220
     FM201600 VRB06KT P6SM FEW220
     FM202200 13008KT P6SM FEW120 SCT220=



000
FTUS45 KBOU 192009 AAB
TAFDEN
TAF AMD
KDEN 192009Z 1920/2024 07007KT P6SM FEW120 SCT220
     FM200100 15007KT P6SM FEW140 SCT220
     FM200600 22008KT P6SM FEW220
     FM201700 17009KT P6SM FEW140 SCT220
     FM202200 10008KT P6SM FEW120 BKN220=



000
FTUS45 KBOU 192009 AAB
TAFDEN
TAF AMD
KDEN 192009Z 1920/2024 07007KT P6SM FEW120 SCT220
     FM200100 15007KT P6SM FEW140 SCT220
     FM200600 22008KT P6SM FEW220
     FM201700 17009KT P6SM FEW140 SCT220
     FM202200 10008KT P6SM FEW120 BKN220=



000
FTUS45 KBOU 191801 AAA
TAFAPA
TAF AMD
KAPA 191801Z 1918/2018 VRB05KT P6SM FEW130 SCT220
     FM191830 34007KT P6SM FEW130 BKN220
     FM192000 02009KT P6SM FEW130 BKN220
     FM192100 06008KT P6SM FEW130 BKN220
     FM200100 15009KT P6SM FEW130 SCT220
     FM200500 18007KT P6SM FEW220
     FM201700 15008KT P6SM FEW120 SCT220=



000
FTUS45 KBOU 191801 AAA
TAFAPA
TAF AMD
KAPA 191801Z 1918/2018 VRB05KT P6SM FEW130 SCT220
     FM191830 34007KT P6SM FEW130 BKN220
     FM192000 02009KT P6SM FEW130 BKN220
     FM192100 06008KT P6SM FEW130 BKN220
     FM200100 15009KT P6SM FEW130 SCT220
     FM200500 18007KT P6SM FEW220
     FM201700 15008KT P6SM FEW120 SCT220=



000
FTUS45 KBOU 191800 AAA
TAFDEN
TAF AMD
KDEN 191800Z 1918/2024 01009KT P6SM FEW140 BKN220
     FM192100 07008KT P6SM FEW140 BKN220
     FM200100 15007KT P6SM FEW140 SCT220
     FM200600 22008KT P6SM FEW220
     FM201700 17009KT P6SM FEW140 SCT220
     FM202200 10008KT P6SM FEW120 BKN220=



000
FTUS45 KBOU 191739
TAFBJC
TAF
KBJC 191739Z 1918/2018 VRB04KT P6SM FEW140 SCT220
     FM191900 33006KT P6SM FEW140 BKN200
     FM192000 02008KT P6SM FEW130 BKN200
     FM192200 08007KT P6SM FEW130 BKN220
     FM200200 VRB05KT P6SM FEW140 SCT220
     FM200600 25007KT P6SM FEW220
     FM201700 14007KT P6SM FEW120 SCT220=



000
FTUS45 KBOU 191739
TAFAPA
TAF
KAPA 191739Z 1918/2018 24006KT P6SM FEW150 SCT220
     FM191900 33006KT P6SM FEW140 BKN220
     FM192000 01007KT P6SM FEW130 BKN220
     FM192100 07007KT P6SM FEW130 BKN220
     FM200100 15009KT P6SM FEW130 SCT220
     FM200500 18007KT P6SM FEW220
     FM201700 15008KT P6SM FEW120 SCT220=



000
FTUS45 KBOU 191739
TAFDEN
TAF
KDEN 191739Z 1918/2024 33007KT P6SM FEW140 BKN220
     FM191900 01008KT P6SM FEW140 BKN220
     FM192100 07008KT P6SM FEW140 BKN220
     FM200100 15007KT P6SM FEW140 SCT220
     FM200600 22008KT P6SM FEW220
     FM201700 17009KT P6SM FEW140 SCT220
     FM202200 10008KT P6SM FEW120 BKN220=



000
FTUS45 KBOU 191739
TAFBJC
TAF
KBJC 191739Z 1918/2018 VRB04KT P6SM FEW140 SCT220
     FM191900 33006KT P6SM FEW140 BKN200
     FM192000 02008KT P6SM FEW130 BKN200
     FM192200 08007KT P6SM FEW130 BKN220
     FM200200 VRB05KT P6SM FEW140 SCT220
     FM200600 25007KT P6SM FEW220
     FM201700 14007KT P6SM FEW120 SCT220=



000
FTUS45 KBOU 191739
TAFDEN
TAF
KDEN 191739Z 1918/2024 33007KT P6SM FEW140 BKN220
     FM191900 01008KT P6SM FEW140 BKN220
     FM192100 07008KT P6SM FEW140 BKN220
     FM200100 15007KT P6SM FEW140 SCT220
     FM200600 22008KT P6SM FEW220
     FM201700 17009KT P6SM FEW140 SCT220
     FM202200 10008KT P6SM FEW120 BKN220=



000
FTUS45 KBOU 191739
TAFAPA
TAF
KAPA 191739Z 1918/2018 24006KT P6SM FEW150 SCT220
     FM191900 33006KT P6SM FEW140 BKN220
     FM192000 01007KT P6SM FEW130 BKN220
     FM192100 07007KT P6SM FEW130 BKN220
     FM200100 15009KT P6SM FEW130 SCT220
     FM200500 18007KT P6SM FEW220
     FM201700 15008KT P6SM FEW120 SCT220=



000
FTUS45 KBOU 191444 AAA
TAFDEN
TAF AMD
KDEN 191444Z 1915/2018 21009KT P6SM FEW140 SCT220
     FM191700 33007KT P6SM FEW140 BKN220
     FM191900 01008KT P6SM FEW140 BKN220
     FM192100 08008KT P6SM FEW140 BKN200
     FM200200 15009KT P6SM FEW140 SCT200
     FM200600 20010KT P6SM FEW140 SCT220
     FM201500 18008KT P6SM FEW140 SCT220=



000
FTUS45 KBOU 191444 AAA
TAFDEN
TAF AMD
KDEN 191444Z 1915/2018 21009KT P6SM FEW140 SCT220
     FM191700 33007KT P6SM FEW140 BKN220
     FM191900 01008KT P6SM FEW140 BKN220
     FM192100 08008KT P6SM FEW140 BKN200
     FM200200 15009KT P6SM FEW140 SCT200
     FM200600 20010KT P6SM FEW140 SCT220
     FM201500 18008KT P6SM FEW140 SCT220=



000
FTUS45 KBOU 191126
TAFDEN
TAF
KDEN 191126Z 1912/2018 24009KT P6SM FEW140 SCT220
     FM191500 33007KT P6SM FEW140 BKN200
     FM191800 01007KT P6SM FEW140 BKN200
     FM192100 08007KT P6SM FEW140 BKN220
     FM200200 15009KT P6SM FEW140 SCT220
     FM200600 20010KT P6SM FEW140 SCT220
     FM201500 18008KT P6SM FEW140 SCT220=



000
FTUS45 KBOU 191126
TAFBJC
TAF
KBJC 191126Z 1912/2012 28005KT P6SM FEW140 SCT220
     FM191500 33007KT P6SM FEW140 BKN200
     FM191800 03007KT P6SM FEW140 BKN200
     FM192100 06007KT P6SM FEW140 BKN220
     FM200200 VRB05KT P6SM FEW140 SCT220
     FM200600 25007KT P6SM FEW140 SCT220=



000
FTUS45 KBOU 191126
TAFAPA
TAF
KAPA 191126Z 1912/2012 24006KT P6SM FEW140 SCT220
     FM191500 33007KT P6SM FEW140 BKN200
     FM191800 01007KT P6SM FEW140 BKN200
     FM192100 08007KT P6SM FEW140 BKN220
     FM200200 15009KT P6SM FEW140 SCT220
     FM200600 18010KT P6SM FEW140 SCT220=



000
FTUS45 KBOU 191126
TAFDEN
TAF
KDEN 191126Z 1912/2018 24009KT P6SM FEW140 SCT220
     FM191500 33007KT P6SM FEW140 BKN200
     FM191800 01007KT P6SM FEW140 BKN200
     FM192100 08007KT P6SM FEW140 BKN220
     FM200200 15009KT P6SM FEW140 SCT220
     FM200600 20010KT P6SM FEW140 SCT220
     FM201500 18008KT P6SM FEW140 SCT220=



000
FTUS45 KBOU 191126
TAFBJC
TAF
KBJC 191126Z 1912/2012 28005KT P6SM FEW140 SCT220
     FM191500 33007KT P6SM FEW140 BKN200
     FM191800 03007KT P6SM FEW140 BKN200
     FM192100 06007KT P6SM FEW140 BKN220
     FM200200 VRB05KT P6SM FEW140 SCT220
     FM200600 25007KT P6SM FEW140 SCT220=



000
FTUS45 KBOU 191126
TAFAPA
TAF
KAPA 191126Z 1912/2012 24006KT P6SM FEW140 SCT220
     FM191500 33007KT P6SM FEW140 BKN200
     FM191800 01007KT P6SM FEW140 BKN200
     FM192100 08007KT P6SM FEW140 BKN220
     FM200200 15009KT P6SM FEW140 SCT220
     FM200600 18010KT P6SM FEW140 SCT220=



000
FTUS45 KBOU 190858 AAA
TAFDEN
TAF AMD
KDEN 190858Z 1909/2012 23008KT P6SM FEW220
     FM191400 VRB06KT P6SM FEW140 SCT220
     FM191700 01007KT P6SM FEW140 BKN200
     FM192100 08007KT P6SM FEW140 BKN220
     FM200200 15009KT P6SM FEW140 SCT220
     FM200600 20007KT P6SM FEW140 SCT220=



000
FTUS45 KBOU 190858 AAA
TAFDEN
TAF AMD
KDEN 190858Z 1909/2012 23008KT P6SM FEW220
     FM191400 VRB06KT P6SM FEW140 SCT220
     FM191700 01007KT P6SM FEW140 BKN200
     FM192100 08007KT P6SM FEW140 BKN220
     FM200200 15009KT P6SM FEW140 SCT220
     FM200600 20007KT P6SM FEW140 SCT220=



000
FTUS45 KBOU 190523
TAFAPA
TAF
KAPA 190523Z 1906/2006 18005KT P6SM SCT250
     FM190900 19006KT P6SM FEW140 SCT220
     FM191400 VRB06KT P6SM FEW140 BKN200
     FM191700 03007KT P6SM FEW140 BKN200
     FM192100 10007KT P6SM FEW140 BKN220
     FM200200 17006KT P6SM FEW140 SCT220=



000
FTUS45 KBOU 190523
TAFBJC
TAF
KBJC 190523Z 1906/2006 29007KT P6SM SCT250
     FM190900 VRB04KT P6SM FEW140 SCT220
     FM191400 31005KT P6SM FEW140 BKN200
     FM191700 02007KT P6SM FEW140 BKN200
     FM192100 09007KT P6SM FEW140 BKN220
     FM200200 18005KT P6SM FEW140 SCT220=



000
FTUS45 KBOU 190523
TAFDEN
TAF
KDEN 190523Z 1906/2012 22006KT P6SM SCT250
     FM190900 24008KT P6SM FEW140 SCT220
     FM191400 VRB06KT P6SM FEW140 BKN200
     FM191700 01007KT P6SM FEW140 BKN200
     FM192100 08007KT P6SM FEW140 BKN220
     FM200200 15009KT P6SM FEW140 SCT220
     FM200600 20007KT P6SM FEW140 SCT220=



000
FTUS45 KBOU 190523
TAFAPA
TAF
KAPA 190523Z 1906/2006 18005KT P6SM SCT250
     FM190900 19006KT P6SM FEW140 SCT220
     FM191400 VRB06KT P6SM FEW140 BKN200
     FM191700 03007KT P6SM FEW140 BKN200
     FM192100 10007KT P6SM FEW140 BKN220
     FM200200 17006KT P6SM FEW140 SCT220=



000
FTUS45 KBOU 190523
TAFBJC
TAF
KBJC 190523Z 1906/2006 29007KT P6SM SCT250
     FM190900 VRB04KT P6SM FEW140 SCT220
     FM191400 31005KT P6SM FEW140 BKN200
     FM191700 02007KT P6SM FEW140 BKN200
     FM192100 09007KT P6SM FEW140 BKN220
     FM200200 18005KT P6SM FEW140 SCT220=



000
FTUS45 KBOU 190523
TAFDEN
TAF
KDEN 190523Z 1906/2012 22006KT P6SM SCT250
     FM190900 24008KT P6SM FEW140 SCT220
     FM191400 VRB06KT P6SM FEW140 BKN200
     FM191700 01007KT P6SM FEW140 BKN200
     FM192100 08007KT P6SM FEW140 BKN220
     FM200200 15009KT P6SM FEW140 SCT220
     FM200600 20007KT P6SM FEW140 SCT220=



000
FTUS45 KBOU 190301 AAA
TAFDEN
TAF AMD
KDEN 190301Z 1903/2006 22006KT P6SM SCT100 BKN200
     FM190800 24008KT P6SM SCT120 OVC200
     FM191400 VRB06KT P6SM FEW140 BKN200
     FM191700 01007KT P6SM FEW130 BKN200
     FM192100 08007KT P6SM FEW130 BKN220=



000
FTUS45 KBOU 190301 AAA
TAFDEN
TAF AMD
KDEN 190301Z 1903/2006 22006KT P6SM SCT100 BKN200
     FM190800 24008KT P6SM SCT120 OVC200
     FM191400 VRB06KT P6SM FEW140 BKN200
     FM191700 01007KT P6SM FEW130 BKN200
     FM192100 08007KT P6SM FEW130 BKN220=



    US Dept of Commerce
    National Oceanic and Atmospheric Administration
    National Weather Service
    1325 East West Highway
    Silver Spring, MD 20910
    Page Author: NWS Internet Services Team
Disclaimer
Information Quality
Credits
Glossary
Privacy Policy
Freedom of Information Act (FOIA)
About Us
Career Opportunities